sensor_id;sensor_type;location;lat;lon;timestamp;pressure;altitude;pressure_sealevel;temperature;humidity
73332;BME280;61560;33.718;73.040;2022-12-08T00:01:24;95049.50;;;9.99;63.59
73332;BME280;61560;33.718;73.040;2022-12-08T00:03:53;95050.28;;;9.96;63.93
73332;BME280;61560;33.718;73.040;2022-12-08T00:14:28;95053.84;;;9.93;63.43
73332;BME280;61560;33.718;73.040;2022-12-08T00:16:58;95044.47;;;9.90;63.39
73332;BME280;61560;33.718;73.040;2022-12-08T00:19:26;95038.66;;;9.84;63.46
73332;BME280;61560;33.718;73.040;2022-12-08T00:21:54;95035.53;;;9.86;63.79
73332;BME280;61560;33.718;73.040;2022-12-08T00:24:23;95033.53;;;9.90;64.24
73332;BME280;61560;33.718;73.040;2022-12-08T00:26:53;95027.69;;;9.88;63.78
73332;BME280;61560;33.718;73.040;2022-12-08T00:29:21;95036.28;;;9.90;63.41
73332;BME280;61560;33.718;73.040;2022-12-08T00:31:51;95037.06;;;9.90;63.95
73332;BME280;61560;33.718;73.040;2022-12-08T00:34:18;95035.91;;;9.88;63.76
73332;BME280;61560;33.718;73.040;2022-12-08T00:36:47;95035.16;;;9.84;64.04
73332;BME280;61560;33.718;73.040;2022-12-08T00:39:15;95048.41;;;9.89;63.57
73332;BME280;61560;33.718;73.040;2022-12-08T00:41:45;95048.78;;;9.87;63.15
73332;BME280;61560;33.718;73.040;2022-12-08T00:44:30;95051.16;;;9.85;64.10
73332;BME280;61560;33.718;73.040;2022-12-08T00:46:57;95046.88;;;9.84;64.09
73332;BME280;61560;33.718;73.040;2022-12-08T00:49:26;95050.03;;;9.83;63.41
73332;BME280;61560;33.718;73.040;2022-12-08T00:51:53;95054.34;;;9.80;63.56
73332;BME280;61560;33.718;73.040;2022-12-08T00:54:22;95059.00;;;9.80;63.71
73332;BME280;61560;33.718;73.040;2022-12-08T00:56:51;95056.69;;;9.75;63.77
73332;BME280;61560;33.718;73.040;2022-12-08T00:59:19;95065.31;;;9.73;64.15
73332;BME280;61560;33.718;73.040;2022-12-08T01:01:46;95073.13;;;9.71;63.91
73332;BME280;61560;33.718;73.040;2022-12-08T01:04:16;95085.25;;;9.74;64.00
73332;BME280;61560;33.718;73.040;2022-12-08T01:06:46;95084.84;;;9.72;64.15
73332;BME280;61560;33.718;73.040;2022-12-08T01:09:14;95089.53;;;9.71;63.97
73332;BME280;61560;33.718;73.040;2022-12-08T01:11:43;95091.88;;;9.73;64.46
73332;BME280;61560;33.718;73.040;2022-12-08T01:14:13;95095.00;;;9.71;64.74
73332;BME280;61560;33.718;73.040;2022-12-08T01:16:41;95099.31;;;9.69;64.21
73332;BME280;61560;33.718;73.040;2022-12-08T01:19:11;95100.88;;;9.70;64.20
73332;BME280;61560;33.718;73.040;2022-12-08T01:21:41;95105.16;;;9.71;63.78
73332;BME280;61560;33.718;73.040;2022-12-08T01:24:17;95102.44;;;9.71;62.26
73332;BME280;61560;33.718;73.040;2022-12-08T01:26:44;95106.78;;;9.68;62.60
73332;BME280;61560;33.718;73.040;2022-12-08T01:29:12;95108.31;;;9.69;62.08
73332;BME280;61560;33.718;73.040;2022-12-08T01:31:40;95115.34;;;9.70;62.26
73332;BME280;61560;33.718;73.040;2022-12-08T01:34:11;95115.72;;;9.69;61.91
73332;BME280;61560;33.718;73.040;2022-12-08T01:36:39;95109.47;;;9.72;61.75
73332;BME280;61560;33.718;73.040;2022-12-08T01:39:13;95113.38;;;9.74;62.38
73332;BME280;61560;33.718;73.040;2022-12-08T01:41:40;95123.13;;;9.75;61.68
73332;BME280;61560;33.718;73.040;2022-12-08T01:46:40;95128.59;;;9.75;62.18
73332;BME280;61560;33.718;73.040;2022-12-08T01:49:14;95130.16;;;9.73;62.07
73332;BME280;61560;33.718;73.040;2022-12-08T01:54:45;95138.41;;;9.69;62.73
73332;BME280;61560;33.718;73.040;2022-12-08T01:57:25;95145.44;;;9.70;62.57
73332;BME280;61560;33.718;73.040;2022-12-08T02:00:11;95147.38;;;9.70;62.14
73332;BME280;61560;33.718;73.040;2022-12-08T02:02:51;95154.41;;;9.71;63.14
73332;BME280;61560;33.718;73.040;2022-12-08T02:05:22;95156.75;;;9.72;62.79
73332;BME280;61560;33.718;73.040;2022-12-08T02:07:52;95167.66;;;9.76;62.96
73332;BME280;61560;33.718;73.040;2022-12-08T02:10:22;95165.69;;;9.80;62.22
73332;BME280;61560;33.718;73.040;2022-12-08T02:12:53;95171.94;;;9.84;62.25
73332;BME280;61560;33.718;73.040;2022-12-08T02:26:28;95187.81;;;10.10;61.73
73332;BME280;61560;33.718;73.040;2022-12-08T02:29:51;95192.31;;;10.41;61.23
73332;BME280;61560;33.718;73.040;2022-12-08T02:38:35;95193.53;;;10.85;60.49
73332;BME280;61560;33.718;73.040;2022-12-08T02:43:48;95197.66;;;11.03;59.85
73332;BME280;61560;33.718;73.040;2022-12-08T02:46:30;95213.56;;;11.22;59.54
73332;BME280;61560;33.718;73.040;2022-12-08T02:48:58;95206.44;;;11.25;59.05
73332;BME280;61560;33.718;73.040;2022-12-08T02:51:27;95206.44;;;11.25;59.12
73332;BME280;61560;33.718;73.040;2022-12-08T02:53:54;95214.34;;;11.19;59.61
73332;BME280;61560;33.718;73.040;2022-12-08T02:56:52;95219.47;;;11.17;59.63
73332;BME280;61560;33.718;73.040;2022-12-08T03:07:31;95223.72;;;11.22;59.92
73332;BME280;61560;33.718;73.040;2022-12-08T03:10:42;95223.72;;;11.22;60.44
73332;BME280;61560;33.718;73.040;2022-12-08T03:13:39;95225.25;;;11.26;60.24
73332;BME280;61560;33.718;73.040;2022-12-08T03:16:13;95224.66;;;11.45;60.31
73332;BME280;61560;33.718;73.040;2022-12-08T03:18:46;95234.22;;;11.71;59.83
73332;BME280;61560;33.718;73.040;2022-12-08T03:21:14;95239.47;;;11.92;59.97
73332;BME280;61560;33.718;73.040;2022-12-08T03:23:45;95244.34;;;12.08;59.92
73332;BME280;61560;33.718;73.040;2022-12-08T03:26:22;95252.41;;;12.22;59.72
73332;BME280;61560;33.718;73.040;2022-12-08T03:28:51;95250.31;;;12.33;59.49
73332;BME280;61560;33.718;73.040;2022-12-08T03:31:21;95250.81;;;12.51;59.11
73332;BME280;61560;33.718;73.040;2022-12-08T03:33:55;95250.25;;;12.63;58.91
73332;BME280;61560;33.718;73.040;2022-12-08T03:36:24;95235.16;;;12.75;58.65
73332;BME280;61560;33.718;73.040;2022-12-08T03:38:52;95243.56;;;12.91;58.51
73332;BME280;61560;33.718;73.040;2022-12-08T03:41:21;95246.88;;;13.05;58.15
73332;BME280;61560;33.718;73.040;2022-12-08T03:43:51;95243.47;;;13.21;58.27
73332;BME280;61560;33.718;73.040;2022-12-08T03:46:25;95249.44;;;13.39;57.69
73332;BME280;61560;33.718;73.040;2022-12-08T03:48:52;95248.72;;;13.58;57.60
73332;BME280;61560;33.718;73.040;2022-12-08T03:51:19;95239.75;;;13.74;57.15
73332;BME280;61560;33.718;73.040;2022-12-08T03:53:48;95239.00;;;13.93;57.05
73332;BME280;61560;33.718;73.040;2022-12-08T03:58:46;95248.47;;;14.31;56.32
73332;BME280;61560;33.718;73.040;2022-12-08T04:01:12;95253.59;;;14.49;55.77
73332;BME280;61560;33.718;73.040;2022-12-08T04:03:40;95250.78;;;14.68;54.82
73332;BME280;61560;33.718;73.040;2022-12-08T04:06:09;95251.94;;;14.87;52.51
73332;BME280;61560;33.718;73.040;2022-12-08T04:08:36;95259.78;;;15.05;52.11
73332;BME280;61560;33.718;73.040;2022-12-08T04:11:06;95250.81;;;15.17;47.96
73332;BME280;61560;33.718;73.040;2022-12-08T04:13:35;95259.47;;;15.35;46.73
73332;BME280;61560;33.718;73.040;2022-12-08T04:16:03;95261.88;;;15.49;46.22
73332;BME280;61560;33.718;73.040;2022-12-08T04:18:31;95269.00;;;15.63;45.75
73332;BME280;61560;33.718;73.040;2022-12-08T04:20:58;95272.28;;;15.74;44.94
73332;BME280;61560;33.718;73.040;2022-12-08T04:23:25;95273.53;;;15.85;44.96
73332;BME280;61560;33.718;73.040;2022-12-08T04:25:53;95277.22;;;15.95;44.91
73332;BME280;61560;33.718;73.040;2022-12-08T04:28:20;95274.72;;;16.00;44.36
73332;BME280;61560;33.718;73.040;2022-12-08T04:30:48;95284.13;;;16.03;44.69
73332;BME280;61560;33.718;73.040;2022-12-08T04:33:16;95285.56;;;16.07;44.72
73332;BME280;61560;33.718;73.040;2022-12-08T04:35:44;95293.56;;;16.18;44.63
73332;BME280;61560;33.718;73.040;2022-12-08T04:38:13;95298.13;;;16.24;43.63
73332;BME280;61560;33.718;73.040;2022-12-08T04:40:40;95292.06;;;16.29;43.25
73332;BME280;61560;33.718;73.040;2022-12-08T04:43:08;95291.53;;;16.34;44.10
73332;BME280;61560;33.718;73.040;2022-12-08T04:45:41;95290.56;;;16.41;44.63
73332;BME280;61560;33.718;73.040;2022-12-08T04:48:09;95297.09;;;16.47;44.74
73332;BME280;61560;33.718;73.040;2022-12-08T04:50:39;95295.03;;;16.51;45.11
73332;BME280;61560;33.718;73.040;2022-12-08T04:53:09;95302.88;;;16.53;45.34
73332;BME280;61560;33.718;73.040;2022-12-08T04:55:41;95310.41;;;16.52;45.23
73332;BME280;61560;33.718;73.040;2022-12-08T04:58:14;95310.66;;;16.58;45.27
73332;BME280;61560;33.718;73.040;2022-12-08T05:00:43;95311.44;;;16.58;45.14
73332;BME280;61560;33.718;73.040;2022-12-08T05:03:10;95311.44;;;16.58;45.08
73332;BME280;61560;33.718;73.040;2022-12-08T05:05:38;95318.72;;;16.65;45.54
73332;BME280;61560;33.718;73.040;2022-12-08T05:08:05;95317.75;;;16.71;45.71
73332;BME280;61560;33.718;73.040;2022-12-08T05:10:36;95309.44;;;16.71;45.70
73332;BME280;61560;33.718;73.040;2022-12-08T05:13:03;95309.69;;;16.77;45.78
73332;BME280;61560;33.718;73.040;2022-12-08T05:15:30;95318.22;;;16.82;45.76
73332;BME280;61560;33.718;73.040;2022-12-08T05:17:57;95319.09;;;16.92;45.42
73332;BME280;61560;33.718;73.040;2022-12-08T05:20:28;95321.22;;;17.00;44.99
73332;BME280;61560;33.718;73.040;2022-12-08T05:22:54;95309.69;;;17.02;44.97
73332;BME280;61560;33.718;73.040;2022-12-08T05:25:23;95322.22;;;17.06;44.90
73332;BME280;61560;33.718;73.040;2022-12-08T05:27:52;95317.69;;;17.12;44.48
73332;BME280;61560;33.718;73.040;2022-12-08T05:30:20;95317.34;;;17.10;44.23
73332;BME280;61560;33.718;73.040;2022-12-08T05:32:47;95314.03;;;17.15;44.21
73332;BME280;61560;33.718;73.040;2022-12-08T05:35:17;95314.25;;;17.21;43.81
73332;BME280;61560;33.718;73.040;2022-12-08T05:37:47;95319.78;;;17.21;43.30
73332;BME280;61560;33.718;73.040;2022-12-08T05:40:16;95324.66;;;17.30;42.84
73332;BME280;61560;33.718;73.040;2022-12-08T05:42:43;95320.78;;;17.40;42.59
73332;BME280;61560;33.718;73.040;2022-12-08T05:45:12;95320.88;;;17.49;41.43
73332;BME280;61560;33.718;73.040;2022-12-08T05:47:40;95312.38;;;17.56;40.41
73332;BME280;61560;33.718;73.040;2022-12-08T05:50:07;95307.47;;;17.60;38.86
73332;BME280;61560;33.718;73.040;2022-12-08T05:52:34;95313.22;;;17.65;38.61
73332;BME280;61560;33.718;73.040;2022-12-08T05:55:01;95309.25;;;17.66;38.07
73332;BME280;61560;33.718;73.040;2022-12-08T05:57:28;95311.44;;;17.71;37.97
73332;BME280;61560;33.718;73.040;2022-12-08T05:59:56;95301.00;;;17.75;37.32
73332;BME280;61560;33.718;73.040;2022-12-08T06:02:25;95303.91;;;17.72;37.10
73332;BME280;61560;33.718;73.040;2022-12-08T06:04:52;95289.28;;;17.71;36.16
73332;BME280;61560;33.718;73.040;2022-12-08T06:07:27;95293.81;;;17.78;36.54
73332;BME280;61560;33.718;73.040;2022-12-08T06:09:53;95287.84;;;17.79;36.37
73332;BME280;61560;33.718;73.040;2022-12-08T06:12:21;95279.72;;;17.85;35.80
73332;BME280;61560;33.718;73.040;2022-12-08T06:14:48;95287.34;;;17.93;35.52
73332;BME280;61560;33.718;73.040;2022-12-08T06:17:15;95274.25;;;17.94;36.20
73332;BME280;61560;33.718;73.040;2022-12-08T06:19:42;95274.91;;;17.98;36.18
73332;BME280;61560;33.718;73.040;2022-12-08T06:22:09;95265.69;;;18.01;35.56
73332;BME280;61560;33.718;73.040;2022-12-08T06:24:36;95270.00;;;18.02;36.27
73332;BME280;61560;33.718;73.040;2022-12-08T06:27:04;95283.28;;;18.07;36.21
73332;BME280;61560;33.718;73.040;2022-12-08T06:29:30;95271.44;;;18.07;36.57
73332;BME280;61560;33.718;73.040;2022-12-08T06:31:58;95273.78;;;18.08;37.27
73332;BME280;61560;33.718;73.040;2022-12-08T06:34:25;95274.41;;;18.12;35.88
73332;BME280;61560;33.718;73.040;2022-12-08T06:36:52;95267.50;;;18.17;35.01
73332;BME280;61560;33.718;73.040;2022-12-08T06:39:28;95266.81;;;18.25;34.90
73332;BME280;61560;33.718;73.040;2022-12-08T06:41:55;95258.09;;;18.36;33.93
73332;BME280;61560;33.718;73.040;2022-12-08T06:44:50;95254.50;;;18.26;32.72
73332;BME280;61560;33.718;73.040;2022-12-08T06:47:21;95251.72;;;18.26;33.68
73332;BME280;61560;33.718;73.040;2022-12-08T06:49:48;95248.03;;;18.29;33.83
73332;BME280;61560;33.718;73.040;2022-12-08T06:52:16;95252.09;;;18.37;33.94
73332;BME280;61560;33.718;73.040;2022-12-08T06:54:43;95255.50;;;18.41;34.84
73332;BME280;61560;33.718;73.040;2022-12-08T06:57:10;95244.34;;;18.45;35.29
73332;BME280;61560;33.718;73.040;2022-12-08T06:59:38;95241.88;;;18.47;34.96
73332;BME280;61560;33.718;73.040;2022-12-08T07:02:06;95247.53;;;18.43;33.52
73332;BME280;61560;33.718;73.040;2022-12-08T07:04:33;95242.88;;;18.40;34.07
73332;BME280;61560;33.718;73.040;2022-12-08T07:07:01;95231.47;;;18.38;34.97
73332;BME280;61560;33.718;73.040;2022-12-08T07:09:27;95233.47;;;18.38;35.74
73332;BME280;61560;33.718;73.040;2022-12-08T07:11:55;95228.94;;;18.31;35.27
73332;BME280;61560;33.718;73.040;2022-12-08T07:14:22;95232.63;;;18.28;34.87
73332;BME280;61560;33.718;73.040;2022-12-08T07:16:51;95222.75;;;18.27;35.83
73332;BME280;61560;33.718;73.040;2022-12-08T07:19:18;95220.13;;;18.24;35.41
73332;BME280;61560;33.718;73.040;2022-12-08T07:21:46;95226.81;;;18.35;35.45
73332;BME280;61560;33.718;73.040;2022-12-08T07:24:13;95228.22;;;18.40;35.03
73332;BME280;61560;33.718;73.040;2022-12-08T07:26:40;95221.00;;;18.42;35.03
73332;BME280;61560;33.718;73.040;2022-12-08T07:29:08;95217.22;;;18.49;35.18
73332;BME280;61560;33.718;73.040;2022-12-08T07:31:39;95224.94;;;18.54;35.63
73332;BME280;61560;33.718;73.040;2022-12-08T07:34:06;95211.06;;;18.54;36.23
73332;BME280;61560;33.718;73.040;2022-12-08T07:36:33;95211.84;;;18.54;36.28
73332;BME280;61560;33.718;73.040;2022-12-08T07:39:00;95206.13;;;18.49;34.86
73332;BME280;61560;33.718;73.040;2022-12-08T07:41:27;95200.59;;;18.49;34.68
73332;BME280;61560;33.718;73.040;2022-12-08T07:43:57;95214.00;;;18.50;34.91
73332;BME280;61560;33.718;73.040;2022-12-08T07:46:26;95200.59;;;18.49;33.91
73332;BME280;61560;33.718;73.040;2022-12-08T07:48:54;95195.94;;;18.46;34.07
73332;BME280;61560;33.718;73.040;2022-12-08T07:51:22;95194.41;;;18.45;34.13
73332;BME280;61560;33.718;73.040;2022-12-08T07:53:51;95188.41;;;18.46;34.23
73332;BME280;61560;33.718;73.040;2022-12-08T07:56:18;95184.84;;;18.46;35.26
73332;BME280;61560;33.718;73.040;2022-12-08T07:58:45;95180.63;;;18.41;35.45
73332;BME280;61560;33.718;73.040;2022-12-08T08:01:26;95177.53;;;18.39;36.97
73332;BME280;61560;33.718;73.040;2022-12-08T08:03:55;95196.63;;;18.37;36.52
73332;BME280;61560;33.718;73.040;2022-12-08T08:06:23;95188.44;;;18.34;37.64
73332;BME280;61560;33.718;73.040;2022-12-08T08:08:50;95177.03;;;18.32;36.62
73332;BME280;61560;33.718;73.040;2022-12-08T08:11:17;95174.41;;;18.28;36.21
73332;BME280;61560;33.718;73.040;2022-12-08T08:13:51;95174.09;;;18.26;35.11
73332;BME280;61560;33.718;73.040;2022-12-08T08:16:19;95176.84;;;18.26;34.57
73332;BME280;61560;33.718;73.040;2022-12-08T08:18:47;95169.94;;;18.31;34.57
73332;BME280;61560;33.718;73.040;2022-12-08T08:21:18;95171.66;;;18.37;35.06
73332;BME280;61560;33.718;73.040;2022-12-08T08:23:46;95168.31;;;18.42;34.45
73332;BME280;61560;33.718;73.040;2022-12-08T08:26:18;95165.09;;;18.44;34.99
73332;BME280;61560;33.718;73.040;2022-12-08T08:28:45;95168.47;;;18.39;33.76
73332;BME280;61560;33.718;73.040;2022-12-08T08:31:23;95166.13;;;18.37;33.95
73332;BME280;61560;33.718;73.040;2022-12-08T08:33:53;95160.25;;;18.35;34.52
73332;BME280;61560;33.718;73.040;2022-12-08T08:36:22;95161.63;;;18.31;34.67
73332;BME280;61560;33.718;73.040;2022-12-08T08:38:48;95169.50;;;18.32;35.40
73332;BME280;61560;33.718;73.040;2022-12-08T08:41:16;95167.94;;;18.31;35.61
73332;BME280;61560;33.718;73.040;2022-12-08T08:43:42;95174.25;;;18.32;34.91
73332;BME280;61560;33.718;73.040;2022-12-08T08:46:12;95170.28;;;18.33;35.07
73332;BME280;61560;33.718;73.040;2022-12-08T08:48:39;95165.47;;;18.33;33.82
73332;BME280;61560;33.718;73.040;2022-12-08T08:51:10;95163.50;;;18.34;33.64
73332;BME280;61560;33.718;73.040;2022-12-08T08:53:40;95164.59;;;18.36;33.71
73332;BME280;61560;33.718;73.040;2022-12-08T08:56:12;95158.44;;;18.41;33.21
73332;BME280;61560;33.718;73.040;2022-12-08T08:58:42;95153.66;;;18.42;32.69
73332;BME280;61560;33.718;73.040;2022-12-08T09:01:45;95154.66;;;18.48;32.58
73332;BME280;61560;33.718;73.040;2022-12-08T09:04:12;95162.38;;;18.53;33.15
73332;BME280;61560;33.718;73.040;2022-12-08T09:06:39;95160.81;;;18.52;34.09
73332;BME280;61560;33.718;73.040;2022-12-08T09:09:09;95160.56;;;18.59;33.94
73332;BME280;61560;33.718;73.040;2022-12-08T09:11:36;95162.72;;;18.64;33.64
73332;BME280;61560;33.718;73.040;2022-12-08T09:14:03;95158.88;;;18.61;31.88
73332;BME280;61560;33.718;73.040;2022-12-08T09:16:30;95165.34;;;18.58;30.80
73332;BME280;61560;33.718;73.040;2022-12-08T09:18:58;95166.09;;;18.59;31.92
73332;BME280;61560;33.718;73.040;2022-12-08T09:21:25;95162.88;;;18.60;32.39
73332;BME280;61560;33.718;73.040;2022-12-08T09:23:54;95154.69;;;18.57;31.87
73332;BME280;61560;33.718;73.040;2022-12-08T09:26:21;95152.38;;;18.55;30.54
73332;BME280;61560;33.718;73.040;2022-12-08T09:28:51;95149.41;;;18.50;30.82
73332;BME280;61560;33.718;73.040;2022-12-08T09:31:19;95141.56;;;18.48;31.16
73332;BME280;61560;33.718;73.040;2022-12-08T09:33:47;95145.44;;;18.51;30.96
73332;BME280;61560;33.718;73.040;2022-12-08T09:36:17;95149.88;;;18.48;31.45
73332;BME280;61560;33.718;73.040;2022-12-08T09:38:44;95153.53;;;18.45;32.30
73332;BME280;61560;33.718;73.040;2022-12-08T09:46:52;95159.75;;;18.28;33.57
73332;BME280;61560;33.718;73.040;2022-12-08T09:49:24;95159.91;;;18.24;33.79
73332;BME280;61560;33.718;73.040;2022-12-08T09:51:53;95149.69;;;18.21;34.88
73332;BME280;61560;33.718;73.040;2022-12-08T09:54:38;95146.28;;;18.17;35.79
73332;BME280;61560;33.718;73.040;2022-12-08T09:57:13;95148.09;;;18.11;36.70
73332;BME280;61560;33.718;73.040;2022-12-08T09:59:45;95141.94;;;18.07;36.64
73332;BME280;61560;33.718;73.040;2022-12-08T10:02:23;95140.19;;;18.00;37.35
73332;BME280;61560;33.718;73.040;2022-12-08T10:04:56;95134.78;;;17.97;37.72
73332;BME280;61560;33.718;73.040;2022-12-08T10:07:39;95127.03;;;17.92;37.82
73332;BME280;61560;33.718;73.040;2022-12-08T10:10:36;95123.31;;;17.86;37.82
73332;BME280;61560;33.718;73.040;2022-12-08T10:13:21;95113.59;;;17.81;37.70
73332;BME280;61560;33.718;73.040;2022-12-08T10:18:35;95111.53;;;17.73;40.10
73332;BME280;61560;33.718;73.040;2022-12-08T10:21:20;95123.19;;;17.68;41.22
73332;BME280;61560;33.718;73.040;2022-12-08T10:23:56;95116.22;;;17.63;41.42
73332;BME280;61560;33.718;73.040;2022-12-08T10:26:26;95115.56;;;17.59;42.18
73332;BME280;61560;33.718;73.040;2022-12-08T10:28:56;95112.16;;;17.55;42.75
73332;BME280;61560;33.718;73.040;2022-12-08T10:31:28;95113.84;;;17.53;42.99
73332;BME280;61560;33.718;73.040;2022-12-08T10:34:00;95113.97;;;17.49;43.11
73332;BME280;61560;33.718;73.040;2022-12-08T10:36:55;95109.00;;;17.44;43.32
73332;BME280;61560;33.718;73.040;2022-12-08T10:39:37;95109.09;;;17.41;43.52
73332;BME280;61560;33.718;73.040;2022-12-08T10:42:23;95105.34;;;17.35;43.83
73332;BME280;61560;33.718;73.040;2022-12-08T10:45:02;95099.50;;;17.33;44.02
73332;BME280;61560;33.718;73.040;2022-12-08T10:47:42;95101.63;;;17.29;44.22
73332;BME280;61560;33.718;73.040;2022-12-08T10:50:44;95088.69;;;17.26;44.83
73332;BME280;61560;33.718;73.040;2022-12-08T10:53:22;95090.81;;;17.22;45.30
73332;BME280;61560;33.718;73.040;2022-12-08T10:58:31;95075.66;;;17.13;46.30
73332;BME280;61560;33.718;73.040;2022-12-08T11:03:32;95072.34;;;17.06;46.81
73332;BME280;61560;33.718;73.040;2022-12-08T11:06:10;95076.03;;;17.03;47.20
73332;BME280;61560;33.718;73.040;2022-12-08T11:08:53;95068.28;;;16.98;47.39
73332;BME280;61560;33.718;73.040;2022-12-08T11:11:38;95067.19;;;16.95;49.18
73332;BME280;61560;33.718;73.040;2022-12-08T11:14:18;95080.38;;;16.91;49.40
73332;BME280;61560;33.718;73.040;2022-12-08T11:16:53;95083.38;;;16.84;49.94
73332;BME280;61560;33.718;73.040;2022-12-08T11:19:25;95084.25;;;16.81;50.38
73332;BME280;61560;33.718;73.040;2022-12-08T11:21:55;95087.28;;;16.74;50.44
73332;BME280;61560;33.718;73.040;2022-12-08T11:24:28;95081.97;;;16.67;51.31
73332;BME280;61560;33.718;73.040;2022-12-08T11:27:03;95087.75;;;16.60;51.94
73332;BME280;61560;33.718;73.040;2022-12-08T11:29:35;95081.25;;;16.54;52.25
73332;BME280;61560;33.718;73.040;2022-12-08T11:32:11;95085.66;;;16.52;52.56
73332;BME280;61560;33.718;73.040;2022-12-08T11:35:03;95074.34;;;16.46;53.04
73332;BME280;61560;33.718;73.040;2022-12-08T11:37:40;95081.22;;;16.42;53.40
73332;BME280;61560;33.718;73.040;2022-12-08T11:40:16;95083.00;;;16.35;53.62
73332;BME280;61560;33.718;73.040;2022-12-08T11:43:15;95071.38;;;16.28;54.01
73332;BME280;61560;33.718;73.040;2022-12-08T11:45:43;95084.19;;;16.22;54.47
73332;BME280;61560;33.718;73.040;2022-12-08T11:48:16;95072.28;;;16.12;55.11
73332;BME280;61560;33.718;73.040;2022-12-08T11:50:55;95077.91;;;16.09;55.28
73332;BME280;61560;33.718;73.040;2022-12-08T11:53:47;95071.81;;;16.01;55.53
73332;BME280;61560;33.718;73.040;2022-12-08T11:59:55;95038.97;;;15.66;56.09
73332;BME280;61560;33.718;73.040;2022-12-08T12:02:26;95075.22;;;15.80;56.29
73332;BME280;61560;33.718;73.040;2022-12-08T12:07:56;95065.25;;;15.70;56.04
73332;BME280;61560;33.718;73.040;2022-12-08T12:16:37;95070.84;;;15.54;52.55
73332;BME280;61560;33.718;73.040;2022-12-08T12:19:15;95068.19;;;15.50;51.89
73332;BME280;61560;33.718;73.040;2022-12-08T12:21:50;95066.66;;;15.49;51.96
73332;BME280;61560;33.718;73.040;2022-12-08T12:24:23;95066.75;;;15.46;52.03
73332;BME280;61560;33.718;73.040;2022-12-08T12:29:26;95070.78;;;15.41;51.92
73332;BME280;61560;33.718;73.040;2022-12-08T12:31:58;95070.13;;;15.37;51.70
73332;BME280;61560;33.718;73.040;2022-12-08T12:34:45;95071.00;;;15.34;51.72
73332;BME280;61560;33.718;73.040;2022-12-08T12:37:17;95072.97;;;15.34;51.49
73332;BME280;61560;33.718;73.040;2022-12-08T12:47:50;95096.91;;;15.24;51.23
73332;BME280;61560;33.718;73.040;2022-12-08T12:50:45;95104.06;;;15.22;51.50
73332;BME280;61560;33.718;73.040;2022-12-08T12:56:04;95112.63;;;15.11;52.85
73332;BME280;61560;33.718;73.040;2022-12-08T12:58:36;95120.13;;;15.11;52.93
73332;BME280;61560;33.718;73.040;2022-12-08T13:06:10;95132.53;;;15.03;52.40
73332;BME280;61560;33.718;73.040;2022-12-08T13:08:50;95140.94;;;14.99;51.56
73332;BME280;61560;33.718;73.040;2022-12-08T13:11:21;95144.22;;;14.94;51.51
73332;BME280;61560;33.718;73.040;2022-12-08T13:13:56;95150.84;;;14.97;51.05
73332;BME280;61560;33.718;73.040;2022-12-08T13:16:25;95153.25;;;14.95;51.08
73332;BME280;61560;33.718;73.040;2022-12-08T13:19:00;95154.03;;;14.95;50.69
73332;BME280;61560;33.718;73.040;2022-12-08T13:21:35;95160.00;;;14.94;51.24
73332;BME280;61560;33.718;73.040;2022-12-08T13:29:32;95176.09;;;14.95;50.38
73332;BME280;61560;33.718;73.040;2022-12-08T13:32:06;95182.84;;;14.94;50.15
73332;BME280;61560;33.718;73.040;2022-12-08T13:34:59;95180.47;;;14.93;50.36
73332;BME280;61560;33.718;73.040;2022-12-08T13:37:46;95180.47;;;14.93;50.62
73332;BME280;61560;33.718;73.040;2022-12-08T13:40:16;95184.03;;;14.93;50.50
73332;BME280;61560;33.718;73.040;2022-12-08T13:42:55;95190.72;;;14.92;50.00
73332;BME280;61560;33.718;73.040;2022-12-08T13:45:28;95184.47;;;14.92;50.07
73332;BME280;61560;33.718;73.040;2022-12-08T13:50:57;95174.38;;;14.85;49.62
73332;BME280;61560;33.718;73.040;2022-12-08T13:53:38;95178.75;;;14.83;50.17
73332;BME280;61560;33.718;73.040;2022-12-08T13:56:06;95185.06;;;14.83;51.05
73332;BME280;61560;33.718;73.040;2022-12-08T13:58:38;95183.94;;;14.81;51.05
73332;BME280;61560;33.718;73.040;2022-12-08T14:01:20;95189.09;;;14.78;51.59
73332;BME280;61560;33.718;73.040;2022-12-08T14:03:52;95198.31;;;14.72;51.85
73332;BME280;61560;33.718;73.040;2022-12-08T14:06:34;95197.28;;;14.66;51.91
73332;BME280;61560;33.718;73.040;2022-12-08T14:09:06;95203.31;;;14.61;51.33
73332;BME280;61560;33.718;73.040;2022-12-08T14:11:58;95191.94;;;14.59;51.98
73332;BME280;61560;33.718;73.040;2022-12-08T14:15:06;95193.56;;;14.56;52.29
73332;BME280;61560;33.718;73.040;2022-12-08T14:17:34;95195.91;;;14.58;52.48
73332;BME280;61560;33.718;73.040;2022-12-08T14:20:19;95205.38;;;14.57;52.63
73332;BME280;61560;33.718;73.040;2022-12-08T14:22:48;95201.25;;;14.49;52.80
73332;BME280;61560;33.718;73.040;2022-12-08T14:25:16;95203.56;;;14.50;52.63
73332;BME280;61560;33.718;73.040;2022-12-08T14:27:45;95216.91;;;14.52;53.50
73332;BME280;61560;33.718;73.040;2022-12-08T14:30:24;95207.50;;;14.49;53.81
73332;BME280;61560;33.718;73.040;2022-12-08T14:32:56;95187.25;;;14.40;54.08
73332;BME280;61560;33.718;73.040;2022-12-08T14:40:47;95197.50;;;14.39;53.65
73332;BME280;61560;33.718;73.040;2022-12-08T14:43:19;95197.50;;;14.39;53.02
73332;BME280;61560;33.718;73.040;2022-12-08T14:45:58;95187.00;;;14.34;52.54
73332;BME280;61560;33.718;73.040;2022-12-08T14:48:40;95192.06;;;14.36;51.06
73332;BME280;61560;33.718;73.040;2022-12-08T14:54:00;95200.00;;;14.34;50.57
73332;BME280;61560;33.718;73.040;2022-12-08T15:01:36;95199.56;;;14.16;51.81
73332;BME280;61560;33.718;73.040;2022-12-08T15:04:23;95198.09;;;14.11;52.25
73332;BME280;61560;33.718;73.040;2022-12-08T15:07:01;95191.88;;;14.07;51.90
73332;BME280;61560;33.718;73.040;2022-12-08T15:09:45;95203.59;;;14.11;52.57